createdAt,value
2019-03-13T00:00:32.405Z,-1.1
2019-03-13T00:01:26.025Z,-1.1
2019-03-13T00:02:11.947Z,-1.1
2019-03-13T00:03:02.565Z,-1
2019-03-13T00:03:52.355Z,-1.1
2019-03-13T00:04:42.122Z,-1.1
2019-03-13T00:05:32.465Z,-1.2
2019-03-13T00:06:22.812Z,-1.3
2019-03-13T00:07:12.585Z,-1.3
2019-03-13T00:08:02.916Z,-1.4
2019-03-13T00:08:52.983Z,-1.5
2019-03-13T00:09:43.037Z,-1.6
2019-03-13T00:10:35.328Z,-1.5
2019-03-13T00:11:23.207Z,-1.5
2019-03-13T00:12:12.654Z,-1.5
2019-03-13T00:13:03.277Z,-1.6
2019-03-13T00:13:53.059Z,-1.5
2019-03-13T00:14:42.585Z,-1.4
2019-03-13T00:15:33.586Z,-1.5
2019-03-13T00:16:23.235Z,-1.5
2019-03-13T00:17:13.322Z,-1.4
2019-03-13T00:18:03.379Z,-1.4
2019-03-13T00:18:53.419Z,-1.4
2019-03-13T00:19:43.762Z,-1.4
2019-03-13T00:20:33.536Z,-1.4
2019-03-13T00:21:23.589Z,-1.3
2019-03-13T00:22:13.382Z,-1.3
2019-03-13T00:23:03.725Z,-1.2
2019-03-13T00:23:54.041Z,-1.2
2019-03-13T00:24:44.189Z,-1.3
2019-03-13T00:25:33.906Z,-1.2
2019-03-13T00:26:23.690Z,-1.3
2019-03-13T00:27:14.071Z,-1.3
2019-03-13T00:28:04.436Z,-1.3
2019-03-13T00:28:54.144Z,-1.4
2019-03-13T00:29:43.924Z,-1.4
2019-03-13T00:30:34.257Z,-1.4
2019-03-13T00:31:24.046Z,-1.4
2019-03-13T00:32:14.386Z,-1.3
2019-03-13T00:33:04.445Z,-1.4
2019-03-13T00:33:54.771Z,-1.4
2019-03-13T00:34:44.275Z,-1.4
2019-03-13T00:35:34.343Z,-1.6
2019-03-13T00:36:24.398Z,-1.6
2019-03-13T00:37:15.000Z,-1.6
2019-03-13T00:38:04.606Z,-1.5
2019-03-13T00:38:54.846Z,-1.4
2019-03-13T00:39:44.650Z,-1.4
2019-03-13T00:40:34.965Z,-1.4
2019-03-13T00:41:25.026Z,-1.4
2019-03-13T00:42:15.072Z,-1.4
2019-03-13T00:43:05.550Z,-1.4
2019-03-13T00:43:54.956Z,-1.4
2019-03-13T00:44:45.255Z,-1.5
2019-03-13T00:45:34.811Z,-1.5
2019-03-13T00:46:25.107Z,-1.4
2019-03-13T00:47:15.168Z,-1.4
2019-03-13T00:48:05.335Z,-1.4
2019-03-13T00:48:55.870Z,-1.4
2019-03-13T00:49:45.892Z,-1.5
2019-03-13T00:50:35.967Z,-1.5
2019-03-13T00:51:25.574Z,-1.5
2019-03-13T00:52:15.896Z,-1.5
2019-03-13T00:53:06.149Z,-1.5
2019-03-13T00:53:55.642Z,-1.5
2019-03-13T00:54:45.698Z,-1.5
2019-03-13T00:55:36.050Z,-1.6
2019-03-13T00:56:26.372Z,-1.6
2019-03-13T00:57:16.447Z,-1.6
2019-03-13T00:58:05.684Z,-1.6
2019-03-13T00:58:56.270Z,-1.7
2019-03-13T00:59:46.615Z,-1.7
2019-03-13T01:00:36.690Z,-1.8
2019-03-13T01:01:26.460Z,-1.8
2019-03-13T01:02:16.795Z,-1.8
2019-03-13T01:03:06.037Z,-1.8
2019-03-13T01:03:56.641Z,-1.9
2019-03-13T01:04:46.985Z,-1.9
2019-03-13T01:05:37.041Z,-1.9
2019-03-13T01:06:26.826Z,-1.9
2019-03-13T01:07:16.881Z,-1.8
2019-03-13T01:08:06.944Z,-1.6
2019-03-13T01:08:56.798Z,-1.7
2019-03-13T01:09:46.301Z,-1.6
2019-03-13T01:10:36.965Z,-1.6
2019-03-13T01:11:29.379Z,-1.7
2019-03-13T01:12:16.695Z,-1.6
2019-03-13T01:13:07.296Z,-1.8
2019-03-13T01:13:57.659Z,-1.6
2019-03-13T01:14:47.122Z,-1.6
2019-03-13T01:15:37.271Z,-1.5
2019-03-13T01:16:26.798Z,-1.4
2019-03-13T01:17:17.113Z,-1.5
2019-03-13T01:18:07.301Z,-1.6
2019-03-13T01:18:57.235Z,-1.6
2019-03-13T01:19:47.569Z,-1.7
2019-03-13T01:20:37.071Z,-1.7
2019-03-13T01:21:27.666Z,-1.7
2019-03-13T01:22:17.733Z,-1.6
2019-03-13T01:23:07.533Z,-1.6
2019-03-13T01:23:58.063Z,-1.6
2019-03-13T01:24:48.429Z,-1.7
2019-03-13T01:25:38.225Z,-1.7
2019-03-13T01:26:28.587Z,-1.7
2019-03-13T01:27:18.038Z,-1.6
2019-03-13T01:28:08.644Z,-1.6
2019-03-13T01:28:58.703Z,-1.7
2019-03-13T01:29:48.478Z,-1.8
2019-03-13T01:30:38.610Z,-1.8
2019-03-13T01:31:28.600Z,-1.8
2019-03-13T01:32:18.384Z,-1.9
2019-03-13T01:33:08.433Z,-1.9
2019-03-13T01:33:58.778Z,-2
2019-03-13T01:34:48.557Z,-2
2019-03-13T01:35:38.721Z,-1.9
2019-03-13T01:36:28.958Z,-1.9
2019-03-13T01:37:19.100Z,-1.9
2019-03-13T01:38:09.350Z,-2
2019-03-13T01:38:59.437Z,-2
2019-03-13T01:39:49.202Z,-1.9
2019-03-13T01:40:38.982Z,-1.9
2019-03-13T01:41:29.620Z,-1.8
2019-03-13T01:42:19.665Z,-1.8
2019-03-13T01:43:09.710Z,-1.8
2019-03-13T01:44:00.132Z,-1.8
2019-03-13T01:44:49.547Z,-1.8
2019-03-13T01:45:39.627Z,-1.8
2019-03-13T01:46:29.390Z,-1.8
2019-03-13T01:47:19.733Z,-1.8
2019-03-13T01:48:10.070Z,-1.8
2019-03-13T01:49:00.134Z,-1.8
2019-03-13T01:49:49.947Z,-1.8
2019-03-13T01:50:39.427Z,-1.8
2019-03-13T01:51:30.324Z,-1.9
2019-03-13T01:52:20.087Z,-1.9
2019-03-13T01:53:09.894Z,-1.9
2019-03-13T01:54:00.511Z,-1.9
2019-03-13T01:54:50.262Z,-1.9
2019-03-13T01:55:40.361Z,-1.9
2019-03-13T01:56:30.733Z,-1.9
2019-03-13T01:57:20.461Z,-1.9
2019-03-13T01:58:10.809Z,-1.9
2019-03-13T01:59:00.848Z,-1.9
2019-03-13T01:59:50.374Z,-1.9
2019-03-13T02:00:40.693Z,-2
2019-03-13T02:01:30.484Z,-2.1
2019-03-13T02:02:21.171Z,-2.1
2019-03-13T02:03:10.878Z,-2.1
2019-03-13T02:04:00.958Z,-2.1
2019-03-13T02:04:50.704Z,-2.1
2019-03-13T02:05:40.768Z,-2.2
2019-03-13T02:06:31.166Z,-2.1
2019-03-13T02:07:20.977Z,-2.1
2019-03-13T02:08:10.964Z,-2.2
2019-03-13T02:09:01.271Z,-2.3
2019-03-13T02:09:51.419Z,-2.2
2019-03-13T02:10:41.411Z,-2.3
2019-03-13T02:11:31.455Z,-2.3
2019-03-13T02:12:21.011Z,-2.3
2019-03-13T02:13:11.863Z,-2.3
2019-03-13T02:14:01.906Z,-2.2
2019-03-13T02:14:51.819Z,-2.1
2019-03-13T02:15:40.649Z,-2
2019-03-13T02:16:31.537Z,-2
2019-03-13T02:17:22.158Z,-2
2019-03-13T02:18:11.748Z,-2
2019-03-13T02:19:01.440Z,-2.1
2019-03-13T02:19:52.642Z,-2.1
2019-03-13T02:20:42.406Z,-2.1
2019-03-13T02:21:32.457Z,-2.2
2019-03-13T02:22:22.250Z,-2.2
2019-03-13T02:23:12.310Z,-2.1
2019-03-13T02:24:02.165Z,-2.1
2019-03-13T02:24:56.173Z,-2.1
2019-03-13T02:25:42.196Z,-2.1
2019-03-13T02:26:32.277Z,-2.1
2019-03-13T02:27:22.322Z,-2.1
2019-03-13T02:28:12.955Z,-2.1
2019-03-13T02:29:02.715Z,-2.2
2019-03-13T02:29:52.777Z,-2.1
2019-03-13T02:30:42.570Z,-2.1
2019-03-13T02:31:33.353Z,-2.1
2019-03-13T02:32:22.966Z,-2.1
2019-03-13T02:33:13.083Z,-2
2019-03-13T02:34:03.203Z,-2.1
2019-03-13T02:34:52.867Z,-2.1
2019-03-13T02:35:43.505Z,-2.1
2019-03-13T02:36:33.288Z,-1.9
2019-03-13T02:37:23.793Z,-1.9
2019-03-13T02:38:13.672Z,-1.8
2019-03-13T02:39:03.179Z,-1.8
2019-03-13T02:39:52.997Z,-1.7
2019-03-13T02:40:43.615Z,-1.7
2019-03-13T02:41:33.900Z,-1.8
2019-03-13T02:42:23.409Z,-1.8
2019-03-13T02:43:14.164Z,-1.8
2019-03-13T02:44:04.117Z,-1.9
2019-03-13T02:44:53.905Z,-1.9
2019-03-13T02:45:43.950Z,-1.9
2019-03-13T02:46:34.252Z,-1.8
2019-03-13T02:47:24.084Z,-1.7
2019-03-13T02:48:14.404Z,-1.8
2019-03-13T02:49:03.955Z,-1.9
2019-03-13T02:49:54.514Z,-1.9
2019-03-13T02:50:44.591Z,-1.9
2019-03-13T02:51:34.359Z,-1.9
2019-03-13T02:52:24.819Z,-1.9
2019-03-13T02:53:14.509Z,-1.9
2019-03-13T02:54:04.521Z,-1.9
2019-03-13T02:54:54.613Z,-1.8
2019-03-13T02:55:44.101Z,-1.7
2019-03-13T02:56:34.139Z,-1.7
2019-03-13T02:57:24.787Z,-1.8
2019-03-13T02:58:14.252Z,-1.8
2019-03-13T02:59:05.154Z,-1.8
2019-03-13T02:59:55.074Z,-1.8
2019-03-13T03:00:45.321Z,-1.8
2019-03-13T03:01:35.124Z,-1.8
2019-03-13T03:02:24.889Z,-1.8
2019-03-13T03:03:15.458Z,-1.8
2019-03-13T03:04:05.511Z,-1.7
2019-03-13T03:07:36.873Z,-1.6
2019-03-13T03:08:26.690Z,-1.6
2019-03-13T03:09:17.003Z,-1.6
2019-03-13T03:10:07.165Z,-1.6
2019-03-13T03:10:57.119Z,-1.8
2019-03-13T03:11:47.138Z,-1.8
2019-03-13T03:12:37.201Z,-1.9
2019-03-13T03:13:27.312Z,-1.8
2019-03-13T03:14:17.131Z,-1.8
2019-03-13T03:15:06.835Z,-1.7
2019-03-13T03:15:57.206Z,-1.8
2019-03-13T03:16:47.531Z,-1.7
2019-03-13T03:17:37.654Z,-1.6
2019-03-13T03:18:27.623Z,-1.6
2019-03-13T03:19:17.683Z,-1.8
2019-03-13T03:20:07.903Z,-1.9
2019-03-13T03:20:57.811Z,-1.9
2019-03-13T03:21:47.578Z,-1.9
2019-03-13T03:22:37.613Z,-2
2019-03-13T03:23:27.713Z,-2
2019-03-13T03:24:18.015Z,-2.1
2019-03-13T03:25:08.119Z,-2.1
2019-03-13T03:25:58.184Z,-2.2
2019-03-13T03:26:48.097Z,-2.3
2019-03-13T03:27:37.725Z,-2.3
2019-03-13T03:28:28.332Z,-2.3
2019-03-13T03:29:18.255Z,-2.3
2019-03-13T03:30:08.467Z,-2.3
2019-03-13T03:30:58.330Z,-2.3
2019-03-13T03:31:48.112Z,-2.3
2019-03-13T03:32:38.692Z,-2.3
2019-03-13T03:33:28.877Z,-2.3
2019-03-13T03:34:18.711Z,-2.3
2019-03-13T03:35:08.592Z,-2.3
2019-03-13T03:35:58.878Z,-2.3
2019-03-13T03:36:48.674Z,-2.3
2019-03-13T03:37:38.886Z,-2.3
2019-03-13T03:38:29.069Z,-2.3
2019-03-13T03:39:18.838Z,-2.3
2019-03-13T03:40:08.869Z,-2.2
2019-03-13T03:40:58.974Z,-2.3
2019-03-13T03:41:49.152Z,-2.3
2019-03-13T03:42:39.086Z,-2.1
2019-03-13T03:43:43.389Z,-2.1
2019-03-13T03:44:19.166Z,-2.1
2019-03-13T03:45:09.025Z,-2.1
2019-03-13T03:45:59.592Z,-2.1
2019-03-13T03:46:48.869Z,-2.1
2019-03-13T03:47:39.457Z,-2.1
2019-03-13T03:48:29.889Z,-2.1
2019-03-13T03:49:19.296Z,-2
2019-03-13T03:50:09.896Z,-2
2019-03-13T03:50:59.936Z,-1.9
2019-03-13T03:51:49.959Z,-1.9
2019-03-13T03:52:39.766Z,-1.9
2019-03-13T03:53:29.827Z,-1.9
2019-03-13T03:54:19.868Z,-1.8
2019-03-13T03:55:10.218Z,-1.8
2019-03-13T03:56:00.289Z,-1.8
2019-03-13T03:56:50.371Z,-1.8
2019-03-13T03:57:40.403Z,-1.8
2019-03-13T03:58:32.632Z,-1.8
2019-03-13T03:59:20.544Z,-1.7
2019-03-13T04:00:10.596Z,-1.8
2019-03-13T04:01:00.643Z,-1.7
2019-03-13T04:01:50.746Z,-1.7
2019-03-13T04:02:40.785Z,-1.6
2019-03-13T04:03:30.608Z,-1.6
2019-03-13T04:04:20.910Z,-1.6
2019-03-13T04:05:10.695Z,-1.5
2019-03-13T04:06:01.054Z,-1.6
2019-03-13T04:06:50.760Z,-1.6
2019-03-13T04:07:41.119Z,-1.6
2019-03-13T04:08:31.152Z,-1.6
2019-03-13T04:09:20.952Z,-1.6
2019-03-13T04:10:10.997Z,-1.5
2019-03-13T04:11:01.511Z,-1.5
2019-03-13T04:11:51.154Z,-1.5
2019-03-13T04:12:41.666Z,-1.5
2019-03-13T04:13:31.251Z,-1.5
2019-03-13T04:14:21.630Z,-1.5
2019-03-13T04:15:11.653Z,-1.5
2019-03-13T04:16:01.720Z,-1.4
2019-03-13T04:16:51.757Z,-1.4
2019-03-13T04:17:41.534Z,-1.4
2019-03-13T04:18:30.816Z,-1.5
2019-03-13T04:19:21.445Z,-1.4
2019-03-13T04:20:11.536Z,-1.4
2019-03-13T04:21:02.187Z,-1.4
2019-03-13T04:21:52.121Z,-1.3
2019-03-13T04:22:41.912Z,-1.3
2019-03-13T04:23:32.322Z,-1.3
2019-03-13T04:24:22.051Z,-1.3
2019-03-13T04:25:27.139Z,-1.3
2019-03-13T04:26:02.211Z,-1.3
2019-03-13T04:26:52.514Z,-1.3
2019-03-13T04:27:42.547Z,-1.3
2019-03-13T04:28:32.644Z,-1.3
2019-03-13T04:29:22.455Z,-1.3
2019-03-13T04:30:12.943Z,-1.3
2019-03-13T04:31:02.793Z,-1.3
2019-03-13T04:31:52.561Z,-1.3
2019-03-13T04:32:42.866Z,-1.3
2019-03-13T04:33:32.664Z,-1.3
2019-03-13T04:34:22.777Z,-1.3
2019-03-13T04:35:13.061Z,-1.2
2019-03-13T04:36:03.138Z,-1.2
2019-03-13T04:36:52.953Z,-1.2
2019-03-13T04:37:43.249Z,-1.2
2019-03-13T04:38:33.418Z,-1.2
2019-03-13T04:39:23.395Z,-1.2
2019-03-13T04:40:13.150Z,-1.1
2019-03-13T04:41:03.168Z,-1.1
2019-03-13T04:41:53.328Z,-1.1
2019-03-13T04:42:43.374Z,-1.1
2019-03-13T04:43:33.638Z,-1
2019-03-13T04:44:23.410Z,-0.9
2019-03-13T04:45:13.198Z,-0.8
2019-03-13T04:46:03.613Z,-0.9
2019-03-13T04:46:53.872Z,-0.8
2019-03-13T04:47:43.658Z,-0.8
2019-03-13T04:48:33.989Z,-0.8
2019-03-13T04:49:23.817Z,-0.8
2019-03-13T04:50:14.093Z,-0.7
2019-03-13T04:51:04.151Z,-0.7
2019-03-13T04:51:53.944Z,-0.7
2019-03-13T04:52:43.548Z,-0.7
2019-03-13T04:53:34.073Z,-0.7
2019-03-13T04:54:23.902Z,-0.7
2019-03-13T04:55:13.970Z,-0.6
2019-03-13T04:56:04.043Z,-0.6
2019-03-13T04:56:53.809Z,-0.6
2019-03-13T04:57:44.374Z,-0.6
2019-03-13T04:58:34.412Z,-0.6
2019-03-13T04:59:24.480Z,-0.6
2019-03-13T05:00:14.847Z,-0.6
2019-03-13T05:01:04.584Z,-0.6
2019-03-13T05:01:54.167Z,-0.6
2019-03-13T05:02:44.715Z,-0.5
2019-03-13T05:03:34.774Z,-0.5
2019-03-13T05:04:24.831Z,-0.5
2019-03-13T05:05:15.234Z,-0.5
2019-03-13T05:06:05.239Z,-0.6
2019-03-13T05:06:55.286Z,-0.6
2019-03-13T05:07:45.343Z,-0.6
2019-03-13T05:08:47.996Z,-0.6
2019-03-13T05:09:25.466Z,-0.6
2019-03-13T05:10:15.264Z,-0.5
2019-03-13T05:11:05.591Z,-0.5
2019-03-13T05:11:55.684Z,-0.5
2019-03-13T05:12:45.489Z,-0.4
2019-03-13T05:13:35.756Z,-0.4
2019-03-13T05:14:25.289Z,-0.3
2019-03-13T05:15:15.946Z,-0.2
2019-03-13T05:16:05.761Z,-0.1
2019-03-13T05:16:55.989Z,-0.1
2019-03-13T05:17:46.037Z,-0.2
2019-03-13T05:18:35.829Z,-0.3
2019-03-13T05:19:26.254Z,-0.3
2019-03-13T05:20:16.637Z,-0.3
2019-03-13T05:21:06.319Z,-0.3
2019-03-13T05:21:56.359Z,-0.3
2019-03-13T05:22:46.395Z,-0.2
2019-03-13T05:23:36.476Z,-0.1
2019-03-13T05:24:26.522Z,-0.1
2019-03-13T05:25:19.496Z,0
2019-03-13T05:26:06.649Z,0.1
2019-03-13T05:26:56.689Z,0.1
2019-03-13T05:27:46.501Z,0.2
2019-03-13T05:28:36.831Z,0.3
2019-03-13T05:29:26.651Z,0.3
2019-03-13T05:30:16.936Z,0.3
2019-03-13T05:31:06.733Z,0.3
2019-03-13T05:31:56.806Z,0.3
2019-03-13T05:32:46.834Z,0.3
2019-03-13T05:33:37.218Z,0.3
2019-03-13T05:34:27.019Z,0.3
2019-03-13T05:35:17.334Z,0.3
2019-03-13T05:36:07.482Z,0.3
2019-03-13T05:36:57.434Z,0.3
2019-03-13T05:37:47.274Z,0.3
2019-03-13T05:38:37.553Z,0.3
2019-03-13T05:39:27.646Z,0.3
2019-03-13T05:40:17.656Z,0.3
2019-03-13T05:41:07.818Z,0.3
2019-03-13T05:41:57.273Z,0.3
2019-03-13T05:42:47.346Z,0.2
2019-03-13T05:43:37.395Z,0.2
2019-03-13T05:44:27.405Z,0.2
2019-03-13T05:45:18.002Z,0.2
2019-03-13T05:46:07.504Z,0.2
2019-03-13T05:46:58.113Z,0.2
2019-03-13T05:47:48.182Z,0.3
2019-03-13T05:48:37.971Z,0.3
2019-03-13T05:49:28.315Z,0.3
2019-03-13T05:50:18.388Z,0.3
2019-03-13T05:51:08.138Z,0.3
2019-03-13T05:51:58.516Z,0.3
2019-03-13T05:52:48.528Z,0.4
2019-03-13T05:53:38.654Z,0.4
2019-03-13T05:54:28.675Z,0.4
2019-03-13T05:55:18.785Z,0.5
2019-03-13T05:56:08.207Z,0.5
2019-03-13T05:56:58.932Z,0.5
2019-03-13T05:57:48.347Z,0.5
2019-03-13T05:58:38.969Z,0.6
2019-03-13T05:59:29.005Z,0.7
2019-03-13T06:00:18.805Z,0.7
2019-03-13T06:01:09.117Z,0.8
2019-03-13T06:01:59.041Z,0.9
2019-03-13T06:02:50.665Z,1
2019-03-13T06:03:39.305Z,1.1
2019-03-13T06:05:36.677Z,1.4
2019-03-13T06:06:26.442Z,1.4
2019-03-13T06:07:16.797Z,1.4
2019-03-13T06:08:06.839Z,1.3
2019-03-13T06:08:56.907Z,1.3
2019-03-13T06:09:46.724Z,1.3
2019-03-13T06:10:36.454Z,1.3
2019-03-13T06:11:27.061Z,1.3
2019-03-13T06:12:17.147Z,1.4
2019-03-13T06:13:06.924Z,1.3
2019-03-13T06:13:56.754Z,1.4
2019-03-13T06:14:47.139Z,1.3
2019-03-13T06:15:37.387Z,1.3
2019-03-13T06:16:27.429Z,1.4
2019-03-13T06:17:17.576Z,1.5
2019-03-13T06:18:11.254Z,1.4
2019-03-13T06:18:57.336Z,1.4
2019-03-13T06:19:47.089Z,1.4
2019-03-13T06:20:37.726Z,1.5
2019-03-13T06:21:27.516Z,1.4
2019-03-13T06:22:17.559Z,1.4
2019-03-13T06:23:07.619Z,1.5
2019-03-13T06:23:57.965Z,1.4
2019-03-13T06:24:47.739Z,1.5
2019-03-13T06:25:38.145Z,1.6
2019-03-13T06:26:27.574Z,1.6
2019-03-13T06:27:17.651Z,1.6
2019-03-13T06:28:07.973Z,1.6
2019-03-13T06:28:58.041Z,1.6
2019-03-13T06:29:48.093Z,1.6
2019-03-13T06:30:38.425Z,1.7
2019-03-13T06:31:28.519Z,1.8
2019-03-13T06:32:18.063Z,1.8
2019-03-13T06:33:08.111Z,1.8
2019-03-13T06:33:58.653Z,1.9
2019-03-13T06:34:48.710Z,2.1
2019-03-13T06:35:38.495Z,2.2
2019-03-13T06:36:28.562Z,2.4
2019-03-13T06:37:18.623Z,2.5
2019-03-13T06:38:08.950Z,2.7
2019-03-13T06:38:59.010Z,2.8
2019-03-13T06:39:48.897Z,2.9
2019-03-13T06:40:38.863Z,3.1
2019-03-13T06:41:29.260Z,3.3
2019-03-13T06:42:18.975Z,3.3
2019-03-13T06:43:08.743Z,3.5
2019-03-13T06:43:59.087Z,3.6
2019-03-13T06:44:49.133Z,3.7
2019-03-13T06:45:39.472Z,3.7
2019-03-13T06:46:29.304Z,3.8
2019-03-13T06:47:19.340Z,3.7
2019-03-13T06:48:08.925Z,3.9
2019-03-13T06:48:59.442Z,3.9
2019-03-13T06:49:49.497Z,3.9
2019-03-13T06:50:39.837Z,3.9
2019-03-13T06:51:29.714Z,4.1
2019-03-13T06:52:19.670Z,4.3
2019-03-13T06:53:10.124Z,4.3
2019-03-13T06:53:59.885Z,4.2
2019-03-13T06:54:49.857Z,4.1
2019-03-13T06:55:39.966Z,4.3
2019-03-13T06:56:30.242Z,4.2
2019-03-13T06:57:20.294Z,4.4
2019-03-13T06:58:09.534Z,4.5
2019-03-13T06:58:59.874Z,4.6
2019-03-13T06:59:50.477Z,4.6
2019-03-13T07:00:39.711Z,4.7
2019-03-13T07:01:30.331Z,4.6
2019-03-13T07:02:20.661Z,4.6
2019-03-13T07:03:10.442Z,4.6
2019-03-13T07:05:36.342Z,5
2019-03-13T07:06:26.119Z,5.1
2019-03-13T07:07:16.481Z,5.3
2019-03-13T07:08:06.780Z,5.3
2019-03-13T07:08:56.358Z,5.3
2019-03-13T07:09:46.928Z,5.4
2019-03-13T07:10:36.970Z,5.4
2019-03-13T07:11:26.736Z,5.7
2019-03-13T07:12:17.193Z,5.8
2019-03-13T07:13:06.307Z,5.7
2019-03-13T07:13:56.928Z,5.6
2019-03-13T07:14:47.260Z,5.6
2019-03-13T07:15:38.551Z,5.6
2019-03-13T07:16:27.364Z,5.8
2019-03-13T07:17:17.431Z,5.6
2019-03-13T07:18:07.205Z,5.5
2019-03-13T07:18:57.546Z,5.6
2019-03-13T07:19:47.331Z,5.7
2019-03-13T07:20:37.400Z,5.8
2019-03-13T07:21:27.736Z,5.8
2019-03-13T07:22:17.883Z,5.9
2019-03-13T07:23:07.299Z,5.9
2019-03-13T07:23:57.700Z,5.7
2019-03-13T07:24:47.415Z,5.7
2019-03-13T07:25:37.464Z,5.9
2019-03-13T07:26:28.117Z,5.9
2019-03-13T07:27:18.130Z,5.8
2019-03-13T07:28:07.920Z,5.8
2019-03-13T07:29:07.376Z,6
2019-03-13T07:29:47.563Z,5.8
2019-03-13T07:30:37.829Z,5.8
2019-03-13T07:31:28.194Z,5.6
2019-03-13T07:32:18.310Z,5.6
2019-03-13T07:33:08.285Z,5.8
2019-03-13T07:33:57.797Z,6.1
2019-03-13T07:34:48.635Z,6.4
2019-03-13T07:35:38.743Z,6.3
2019-03-13T07:36:28.534Z,6.4
2019-03-13T07:37:18.862Z,6.4
2019-03-13T07:38:08.362Z,6.5
2019-03-13T07:38:58.689Z,6.8
2019-03-13T07:39:48.477Z,6.8
2019-03-13T07:40:39.109Z,6.6
2019-03-13T07:41:28.877Z,6.4
2019-03-13T07:42:18.431Z,6.6
2019-03-13T07:43:09.275Z,6.7
2019-03-13T07:43:58.772Z,6.8
2019-03-13T07:44:48.669Z,6.8
2019-03-13T07:45:39.164Z,6.8
2019-03-13T07:46:29.509Z,6.7
2019-03-13T07:47:19.295Z,6.3
2019-03-13T07:48:09.351Z,6
2019-03-13T07:48:59.406Z,6.2
2019-03-13T07:49:49.749Z,6.6
2019-03-13T07:50:39.541Z,6.9
2019-03-13T07:51:29.302Z,7.2
2019-03-13T07:52:19.931Z,7.2
2019-03-13T07:53:09.716Z,7.2
2019-03-13T07:53:59.754Z,7
2019-03-13T07:54:49.820Z,6.9
2019-03-13T07:55:40.169Z,7
2019-03-13T07:56:29.940Z,7.3
2019-03-13T07:57:20.278Z,7.3
2019-03-13T07:58:10.411Z,6.9
2019-03-13T07:59:00.408Z,6.4
2019-03-13T07:59:50.473Z,6.6
2019-03-13T08:00:40.238Z,6.8
2019-03-13T08:01:30.298Z,6.6
2019-03-13T08:02:20.355Z,6.9
2019-03-13T08:03:10.711Z,6.8
2019-03-13T08:04:00.775Z,6.4
2019-03-13T08:04:50.538Z,6.7
2019-03-13T08:05:40.895Z,6.8
2019-03-13T08:06:30.661Z,6.9
2019-03-13T08:07:20.725Z,7.1
2019-03-13T08:08:10.788Z,7.1
2019-03-13T08:09:00.825Z,7.3
2019-03-13T08:09:50.615Z,7.7
2019-03-13T08:10:41.325Z,7.4
2019-03-13T08:11:31.310Z,7.4
2019-03-13T08:12:20.798Z,7.1
2019-03-13T08:13:11.415Z,7.6
2019-03-13T08:14:01.537Z,7.6
2019-03-13T08:14:50.967Z,7
2019-03-13T08:15:41.592Z,7
2019-03-13T08:16:31.391Z,7.4
2019-03-13T08:17:21.432Z,7.2
2019-03-13T08:18:11.758Z,6.7
2019-03-13T08:19:01.548Z,6.8
2019-03-13T08:19:51.890Z,6.4
2019-03-13T08:20:41.439Z,6.4
2019-03-13T08:21:32.114Z,6.3
2019-03-13T08:22:22.054Z,6.5
2019-03-13T08:23:12.118Z,6.9
2019-03-13T08:24:02.274Z,7
2019-03-13T08:24:51.959Z,6.6
2019-03-13T08:25:42.294Z,6.6
2019-03-13T08:26:32.110Z,6.5
2019-03-13T08:27:22.406Z,6.6
2019-03-13T08:28:11.921Z,6.3
2019-03-13T08:29:02.536Z,6.1
2019-03-13T08:29:52.306Z,6.3
2019-03-13T08:30:42.766Z,6.6
2019-03-13T08:31:32.440Z,6.4
2019-03-13T08:32:22.219Z,7
2019-03-13T08:33:12.029Z,6.7
2019-03-13T08:34:02.926Z,6.8
2019-03-13T08:34:52.927Z,6.9
2019-03-13T08:35:42.996Z,6.9
2019-03-13T08:36:32.513Z,6.8
2019-03-13T08:37:23.213Z,6.3
2019-03-13T08:38:12.926Z,6.4
2019-03-13T08:39:03.238Z,6.3
2019-03-13T08:39:52.754Z,6
2019-03-13T08:40:42.528Z,6.3
2019-03-13T08:41:33.431Z,6
2019-03-13T08:42:23.555Z,6.1
2019-03-13T08:43:13.273Z,6.6
2019-03-13T08:44:03.618Z,6.8
2019-03-13T08:44:53.673Z,7.2
2019-03-13T08:45:43.445Z,7.2
2019-03-13T08:46:33.776Z,6.9
2019-03-13T08:47:23.621Z,6.8
2019-03-13T08:48:13.898Z,6.2
2019-03-13T08:49:03.491Z,6.1
2019-03-13T08:49:54.060Z,5.9
2019-03-13T08:50:43.542Z,6.1
2019-03-13T08:51:34.268Z,6.1
2019-03-13T08:52:23.904Z,6.3
2019-03-13T08:53:13.970Z,6.8
2019-03-13T08:54:04.155Z,7.1
2019-03-13T08:54:54.373Z,6.4
2019-03-13T08:55:44.148Z,6.5
2019-03-13T08:56:34.230Z,6.7
2019-03-13T08:57:24.533Z,7
2019-03-13T08:58:14.150Z,7.2
2019-03-13T08:59:04.419Z,7.3
2019-03-13T08:59:54.164Z,7
2019-03-13T09:00:44.792Z,7
2019-03-13T09:01:34.851Z,6.9
2019-03-13T09:02:24.648Z,7.3
2019-03-13T09:03:14.404Z,7.6
2019-03-13T09:04:05.034Z,7.8
2019-03-13T09:04:54.259Z,8.1
2019-03-13T09:05:44.695Z,8
2019-03-13T09:06:34.922Z,7.8
2019-03-13T09:07:24.698Z,7.9
2019-03-13T09:08:15.339Z,7.9
2019-03-13T09:09:04.604Z,7.9
2019-03-13T09:09:54.904Z,7.8
2019-03-13T09:10:45.242Z,7.7
2019-03-13T09:11:35.272Z,7.6
2019-03-13T09:12:25.619Z,7.7
2019-03-13T09:13:15.124Z,7.4
2019-03-13T09:14:05.476Z,7.5
2019-03-13T09:14:55.246Z,7.1
2019-03-13T09:15:45.569Z,6.9
2019-03-13T09:16:35.428Z,6.9
2019-03-13T09:17:25.694Z,7.3
2019-03-13T09:18:15.808Z,7.6
2019-03-13T09:19:05.609Z,7.8
2019-03-13T09:19:56.149Z,8
2019-03-13T09:20:45.703Z,7.6
2019-03-13T09:21:36.091Z,7.4
2019-03-13T09:22:26.338Z,7.4
2019-03-13T09:23:16.378Z,7.3
2019-03-13T09:24:05.919Z,7.7
2019-03-13T09:24:55.811Z,7.6
2019-03-13T09:25:45.746Z,7.7
2019-03-13T09:26:36.350Z,7.5
2019-03-13T09:27:25.846Z,7.2
2019-03-13T09:28:16.755Z,7.3
2019-03-13T09:29:06.522Z,7.3
2019-03-13T09:29:56.611Z,7.7
2019-03-13T09:30:46.781Z,7.7
2019-03-13T09:31:36.703Z,7.3
2019-03-13T09:32:27.021Z,6.9
2019-03-13T09:33:17.097Z,6.9
2019-03-13T09:34:06.339Z,7.2
2019-03-13T09:34:56.382Z,7.1
2019-03-13T09:35:47.265Z,7.3
2019-03-13T09:36:36.785Z,7.4
2019-03-13T09:37:27.113Z,7.4
2019-03-13T09:38:17.202Z,7.9
2019-03-13T09:39:07.542Z,8.2
2019-03-13T09:39:57.575Z,8.3
2019-03-13T09:40:47.340Z,8.3
2019-03-13T09:41:37.417Z,7.7
2019-03-13T09:42:27.487Z,7.4
2019-03-13T09:43:17.524Z,7.4
2019-03-13T09:44:07.882Z,7.2
2019-03-13T09:44:57.392Z,7.1
2019-03-13T09:45:48.004Z,7.1
2019-03-13T09:46:37.269Z,7.2
2019-03-13T09:47:27.834Z,6.9
2019-03-13T09:48:17.883Z,6.6
2019-03-13T09:49:07.936Z,6.7
2019-03-13T09:49:58.274Z,7.1
2019-03-13T09:50:47.797Z,7.3
2019-03-13T09:51:38.119Z,7.3
2019-03-13T09:52:28.557Z,7.7
2019-03-13T09:53:18.272Z,8.3
2019-03-13T09:54:08.111Z,8.8
2019-03-13T09:54:58.369Z,9.1
2019-03-13T09:55:48.435Z,8.9
2019-03-13T09:56:37.914Z,9.3
2019-03-13T09:57:28.558Z,9.5
2019-03-13T09:58:18.594Z,9.7
2019-03-13T09:59:08.760Z,9.6
2019-03-13T09:59:58.994Z,9.3
2019-03-13T10:00:48.813Z,9.1
2019-03-13T10:01:39.138Z,9.2
2019-03-13T10:02:28.894Z,8.9
2019-03-13T10:03:18.661Z,8.9
2019-03-13T10:04:09.033Z,8.8
2019-03-13T10:06:36.193Z,8.3
2019-03-13T10:07:25.796Z,8.3
2019-03-13T10:08:16.036Z,8.8
2019-03-13T10:09:06.635Z,9.4
2019-03-13T10:09:56.703Z,9.6
2019-03-13T10:10:46.476Z,10
2019-03-13T10:11:36.548Z,10.3
2019-03-13T10:12:26.611Z,10.1
2019-03-13T10:13:16.728Z,10.1
2019-03-13T10:14:06.185Z,10.2
2019-03-13T10:14:56.578Z,9.2
2019-03-13T10:15:46.838Z,9.6
2019-03-13T10:16:37.170Z,10
2019-03-13T10:17:27.046Z,10.1
2019-03-13T10:18:17.025Z,10.3
2019-03-13T10:19:06.815Z,10.8
2019-03-13T10:19:57.138Z,11
2019-03-13T10:20:46.932Z,11.1
2019-03-13T10:21:37.246Z,11.1
2019-03-13T10:22:27.576Z,10.9
2019-03-13T10:23:16.338Z,11.1
2019-03-13T10:24:07.713Z,11.1
2019-03-13T10:24:57.764Z,11
2019-03-13T10:25:51.140Z,11.1
2019-03-13T10:26:37.607Z,11.1
2019-03-13T10:27:27.671Z,10.9
2019-03-13T10:28:18.015Z,10.7
2019-03-13T10:29:08.055Z,10.5
2019-03-13T10:29:58.125Z,10.8
2019-03-13T10:30:47.902Z,10.8
2019-03-13T10:31:38.242Z,10.9
2019-03-13T10:32:28.302Z,10.8
2019-03-13T10:33:18.374Z,10.5
2019-03-13T10:34:08.139Z,10.3
2019-03-13T10:34:58.474Z,9.9
2019-03-13T10:35:48.339Z,9.4
2019-03-13T10:36:38.594Z,9.3
2019-03-13T10:37:28.374Z,9.4
2019-03-13T10:38:18.529Z,9.4
2019-03-13T10:39:08.506Z,9.9
2019-03-13T10:39:58.564Z,10.1
2019-03-13T10:40:48.601Z,10
2019-03-13T10:41:38.964Z,10.1
2019-03-13T10:42:29.402Z,9.7
2019-03-13T10:43:18.809Z,8.8
2019-03-13T10:44:09.155Z,8.9
2019-03-13T10:44:59.203Z,9.5
2019-03-13T10:45:49.263Z,9.3
2019-03-13T10:46:39.306Z,9.6
2019-03-13T10:47:29.097Z,9.4
2019-03-13T10:48:18.884Z,9.6
2019-03-13T10:49:09.214Z,9.5
2019-03-13T10:49:59.299Z,9.2
2019-03-13T10:50:49.055Z,9.4
2019-03-13T10:51:39.123Z,9.9
2019-03-13T10:52:29.173Z,9.4
2019-03-13T10:53:19.835Z,8.9
2019-03-13T10:54:09.837Z,8.7
2019-03-13T10:54:59.903Z,8.9
2019-03-13T10:55:49.411Z,9.6
2019-03-13T10:56:39.293Z,10.2
2019-03-13T10:57:30.078Z,10.7
2019-03-13T10:58:19.868Z,11.3
2019-03-13T10:59:09.921Z,11.9
2019-03-13T10:59:59.975Z,11.8
2019-03-13T11:00:50.230Z,11.3
2019-03-13T11:01:40.108Z,10.7
2019-03-13T11:02:30.168Z,10.6
2019-03-13T11:03:20.215Z,10.7
2019-03-13T11:04:09.995Z,10.1
2019-03-13T11:05:00.539Z,10
2019-03-13T11:05:50.135Z,10.5
2019-03-13T11:06:40.270Z,10
2019-03-13T11:07:31.900Z,9.8
2019-03-13T11:08:20.620Z,10.1
2019-03-13T11:09:10.923Z,10.4
2019-03-13T11:10:00.988Z,10.3
2019-03-13T11:10:49.912Z,10.3
2019-03-13T11:11:40.822Z,9.8
2019-03-13T11:12:30.581Z,9.9
2019-03-13T11:13:21.258Z,10.3
2019-03-13T11:14:18.707Z,11.2
2019-03-13T11:15:01.429Z,10.5
2019-03-13T11:15:51.115Z,10.3
2019-03-13T11:16:41.276Z,10.1
2019-03-13T11:17:31.527Z,10.2
2019-03-13T11:18:21.377Z,10.2
2019-03-13T11:19:10.810Z,9.9
2019-03-13T11:20:01.687Z,10.3
2019-03-13T11:20:51.182Z,10.1
2019-03-13T11:21:41.567Z,9.6
2019-03-13T11:22:31.580Z,9.3
2019-03-13T11:23:21.419Z,9.3
2019-03-13T11:24:11.969Z,9.6
2019-03-13T11:25:02.305Z,9.7
2019-03-13T11:25:51.903Z,9.8